Time;durP1;ratioP1;P1;durP2;ratioP2;P2;SDS_P1;SDS_P2;PMS_P1;PMS_P2;Temp;Humidity;BMP_temperature;BMP_pressure;BME280_temperature;BME280_humidity;BME280_pressure;Samples;Min_cycle;Max_cycle;Signal;HPM_P1;HPM_P2
2022/11/21 00:02:06;;;;;;;3.65;3.45;;;5.40;99.90;;;;;;5002003;28;20774;-70
2022/11/21 00:04:34;;;;;;;3.97;3.67;;;5.40;99.90;;;;;;5009926;28;20282;-70
2022/11/21 00:07:01;;;;;;;3.35;3.15;;;5.40;99.90;;;;;;5006617;28;20756;-69
2022/11/21 00:09:28;;;;;;;3.35;3.15;;;5.40;99.90;;;;;;5000299;28;20698;-69
2022/11/21 00:11:55;;;;;;;3.20;3.00;;;5.50;99.90;;;;;;5003391;28;20220;-69
2022/11/21 00:14:23;;;;;;;3.85;3.55;;;5.50;99.90;;;;;;5000220;28;20220;-69
2022/11/21 00:16:50;;;;;;;3.08;2.88;;;5.50;99.90;;;;;;5001694;28;20201;-70
2022/11/21 00:19:17;;;;;;;3.50;3.30;;;5.50;99.90;;;;;;5003053;28;20204;-69
2022/11/21 00:21:45;;;;;;;3.95;3.60;;;5.40;99.90;;;;;;5005501;28;20679;-69
2022/11/21 00:24:12;;;;;;;3.70;3.45;;;5.40;99.90;;;;;;5004920;28;20231;-71
2022/11/21 00:26:39;;;;;;;3.60;3.40;;;5.30;99.90;;;;;;5007744;28;20707;-69
2022/11/21 00:29:06;;;;;;;3.38;3.17;;;5.30;99.90;;;;;;5006428;28;20196;-70
2022/11/21 00:31:33;;;;;;;3.63;3.33;;;5.20;99.90;;;;;;5002484;28;20658;-69
2022/11/21 00:36:41;;;;;;;3.92;3.63;;;5.20;99.90;;;;;;5047510;28;20203;-70
2022/11/21 00:39:10;;;;;;;3.55;3.35;;;5.20;99.90;;;;;;5051274;28;20190;-71
2022/11/21 00:41:37;;;;;;;3.70;3.40;;;5.10;99.90;;;;;;5050539;28;20211;-71
2022/11/21 00:44:04;;;;;;;3.60;3.40;;;5.10;99.90;;;;;;5051498;28;20190;-71
2022/11/21 00:46:32;;;;;;;3.60;3.33;;;5.10;99.90;;;;;;5049814;28;20195;-72
2022/11/21 00:48:59;;;;;;;3.53;3.33;;;5.10;99.90;;;;;;5053341;28;20199;-72
2022/11/21 00:51:26;;;;;;;3.78;3.58;;;5.00;99.90;;;;;;5054144;28;20231;-72
2022/11/21 00:53:54;;;;;;;3.25;3.05;;;5.00;99.90;;;;;;5033012;28;20628;-71
2022/11/21 00:56:22;;;;;;;3.30;3.10;;;5.00;99.90;;;;;;5038510;28;20207;-71
2022/11/21 00:58:50;;;;;;;3.92;3.63;;;5.00;99.90;;;;;;5029690;28;20230;-71
2022/11/21 01:01:17;;;;;;;3.40;3.20;;;5.00;99.90;;;;;;5031305;28;20222;-71
2022/11/21 01:03:45;;;;;;;3.63;3.38;;;4.90;99.90;;;;;;5024512;28;20230;-71
2022/11/21 01:06:14;;;;;;;4.07;3.78;;;4.90;99.90;;;;;;5028640;28;20210;-71
2022/11/21 01:08:43;;;;;;;3.50;3.30;;;4.90;99.90;;;;;;5048028;28;20225;-71
2022/11/21 01:11:13;;;;;;;3.80;3.50;;;4.90;99.90;;;;;;5049772;28;20215;-71
2022/11/21 01:13:44;;;;;;;3.70;3.50;;;4.90;99.90;;;;;;5034992;28;20226;-71
2022/11/21 01:16:13;;;;;;;3.70;3.50;;;4.80;99.90;;;;;;5029060;28;20207;-71
2022/11/21 01:18:41;;;;;;;3.30;3.10;;;4.80;99.90;;;;;;5028639;28;20220;-71
2022/11/21 01:21:14;;;;;;;3.42;3.22;;;4.80;99.90;;;;;;5031860;28;20216;-71
2022/11/21 01:23:41;;;;;;;3.75;3.55;;;4.70;99.90;;;;;;5029838;28;20218;-71
2022/11/21 01:26:13;;;;;;;4.22;3.92;;;4.70;99.90;;;;;;5033764;28;20203;-71
2022/11/21 01:28:41;;;;;;;3.83;3.53;;;4.60;99.90;;;;;;5024192;28;20215;-71
2022/11/21 01:31:10;;;;;;;4.15;3.85;;;4.60;99.90;;;;;;5028302;28;20216;-71
2022/11/21 01:33:38;;;;;;;3.63;3.42;;;4.60;99.90;;;;;;5046256;28;20215;-72
2022/11/21 01:36:10;;;;;;;3.85;3.58;;;4.50;99.90;;;;;;5047338;28;20215;-71
2022/11/21 01:38:37;;;;;;;3.95;3.65;;;4.50;99.90;;;;;;5034220;28;20220;-71
2022/11/21 01:41:05;;;;;;;3.85;3.65;;;4.40;99.90;;;;;;5031061;28;20223;-71
2022/11/21 01:43:32;;;;;;;3.60;3.40;;;4.40;99.90;;;;;;5022420;28;20219;-71
2022/11/21 01:46:05;;;;;;;3.60;3.40;;;4.40;99.90;;;;;;5025164;28;20200;-71
2022/11/21 01:48:37;;;;;;;3.95;3.75;;;4.30;99.90;;;;;;5047658;28;20218;-71
2022/11/21 01:51:10;;;;;;;4.00;3.70;;;4.30;99.90;;;;;;5043009;28;20223;-71
2022/11/21 01:53:40;;;;;;;3.92;3.70;;;4.30;99.90;;;;;;5026139;28;20227;-71
2022/11/21 01:56:08;;;;;;;4.13;3.92;;;4.30;99.90;;;;;;5025021;28;20203;-72
2022/11/21 01:58:37;;;;;;;3.45;3.25;;;4.30;99.90;;;;;;5034321;28;20737;-70
2022/11/21 02:01:06;;;;;;;3.78;3.47;;;4.30;99.90;;;;;;5030088;28;20215;-71
2022/11/21 02:03:36;;;;;;;4.50;4.20;;;4.30;99.90;;;;;;5029740;28;20218;-71
2022/11/21 02:06:05;;;;;;;3.55;3.35;;;4.20;99.90;;;;;;5029697;28;20192;-71
2022/11/21 02:08:32;;;;;;;3.83;3.60;;;4.30;99.90;;;;;;5028008;28;20223;-71
2022/11/21 02:11:09;;;;;;;4.72;4.32;;;4.30;99.90;;;;;;5039052;28;20212;-71
2022/11/21 02:13:36;;;;;;;4.40;4.10;;;4.30;99.90;;;;;;5027007;28;20219;-71
2022/11/21 02:16:06;;;;;;;4.82;4.43;;;4.30;99.90;;;;;;5023882;28;20200;-72
2022/11/21 02:18:33;;;;;;;4.50;4.10;;;4.30;99.90;;;;;;5039102;28;20215;-71
2022/11/21 02:21:06;;;;;;;4.20;3.90;;;4.30;99.90;;;;;;5049493;28;20222;-72
2022/11/21 02:23:41;;;;;;;4.70;4.38;;;4.30;99.90;;;;;;5034776;28;20211;-69
2022/11/21 02:26:10;;;;;;;6.20;5.60;;;4.30;99.90;;;;;;5034381;28;20289;-71
2022/11/21 02:28:37;;;;;;;5.32;4.68;;;4.30;99.90;;;;;;5028945;28;20215;-72
2022/11/21 02:31:04;;;;;;;6.25;5.30;;;4.30;99.90;;;;;;5026934;28;20215;-72
2022/11/21 02:33:31;;;;;;;6.43;4.90;;;4.30;99.90;;;;;;5038820;28;20591;-72
2022/11/21 02:36:00;;;;;;;7.20;5.18;;;4.30;99.90;;;;;;5038481;28;20694;-72
2022/11/21 02:38:31;;;;;;;6.38;4.88;;;4.30;99.90;;;;;;5027775;28;20215;-71
2022/11/21 02:41:05;;;;;;;4.53;4.13;;;4.20;99.90;;;;;;5026490;28;20219;-71
2022/11/21 02:43:40;;;;;;;4.55;4.15;;;4.10;99.90;;;;;;5031337;28;20223;-71
2022/11/21 02:46:07;;;;;;;5.03;4.63;;;4.00;99.90;;;;;;5035732;28;20683;-70
2022/11/21 02:48:36;;;;;;;4.68;4.38;;;4.00;99.90;;;;;;5032791;28;20810;-71
2022/11/21 02:51:03;;;;;;;4.13;3.80;;;3.90;99.90;;;;;;5031709;28;20223;-71
2022/11/21 02:53:31;;;;;;;4.55;4.25;;;3.90;99.90;;;;;;5032036;28;20298;-70
2022/11/21 02:55:58;;;;;;;4.65;4.25;;;3.90;99.90;;;;;;5036049;28;20205;-70
2022/11/21 02:58:25;;;;;;;4.35;3.80;;;3.90;99.90;;;;;;5036311;28;20216;-71
2022/11/21 03:00:55;;;;;;;4.75;4.35;;;3.90;99.90;;;;;;5032506;28;20203;-71
2022/11/21 03:03:22;;;;;;;4.82;4.43;;;3.80;99.90;;;;;;5030089;28;20211;-71
2022/11/21 03:05:49;;;;;;;4.93;4.53;;;3.80;99.90;;;;;;5042730;28;20779;-71
2022/11/21 03:08:16;;;;;;;5.00;4.53;;;3.70;99.90;;;;;;5029512;28;20223;-70
2022/11/21 03:10:44;;;;;;;4.85;4.35;;;3.70;99.90;;;;;;5031034;28;20206;-70
2022/11/21 03:13:11;;;;;;;5.13;4.63;;;3.70;99.90;;;;;;5030969;28;20215;-70
2022/11/21 03:15:39;;;;;;;4.93;4.43;;;3.70;99.90;;;;;;5026269;28;20196;-70
2022/11/21 03:18:07;;;;;;;4.40;4.07;;;3.70;99.90;;;;;;5028675;28;20230;-70
2022/11/21 03:20:35;;;;;;;4.47;4.10;;;3.80;99.90;;;;;;5023011;28;20208;-72
2022/11/21 03:23:03;;;;;;;4.25;3.95;;;3.80;99.90;;;;;;5025572;28;20250;-70
2022/11/21 03:25:30;;;;;;;4.95;4.50;;;3.70;99.90;;;;;;5029202;28;20707;-69
2022/11/21 03:27:57;;;;;;;4.07;3.78;;;3.70;99.90;;;;;;5025412;28;20227;-72
2022/11/21 03:30:26;;;;;;;5.28;4.80;;;3.70;99.90;;;;;;5027179;28;20200;-71
2022/11/21 03:32:55;;;;;;;4.72;4.30;;;3.60;99.90;;;;;;5028874;28;20306;-70
2022/11/21 03:35:25;;;;;;;4.43;4.10;;;3.50;99.90;;;;;;5029443;28;20207;-71
2022/11/21 03:37:52;;;;;;;3.92;3.63;;;3.50;99.90;;;;;;5023215;28;20703;-70
2022/11/21 03:40:19;;;;;;;3.72;3.42;;;3.40;99.90;;;;;;5028134;28;20418;-71
2022/11/21 03:42:46;;;;;;;4.38;4.07;;;3.40;99.90;;;;;;5024639;28;20626;-71
2022/11/21 03:45:14;;;;;;;4.30;4.00;;;3.50;99.90;;;;;;5029086;28;20201;-71
2022/11/21 03:47:42;;;;;;;4.20;3.85;;;3.40;99.90;;;;;;5023151;28;20216;-71
2022/11/21 03:50:10;;;;;;;3.92;3.63;;;3.40;99.90;;;;;;5020477;28;20195;-71
2022/11/21 03:52:39;;;;;;;3.70;3.40;;;3.40;99.90;;;;;;5029796;28;20863;-70
2022/11/21 03:55:07;;;;;;;4.13;3.88;;;3.40;99.90;;;;;;5037700;28;20219;-70
2022/11/21 03:57:34;;;;;;;4.40;4.10;;;3.40;99.90;;;;;;5031114;28;20233;-69
2022/11/21 04:00:01;;;;;;;3.78;3.58;;;3.40;99.90;;;;;;5031329;28;20249;-71
2022/11/21 04:02:30;;;;;;;4.00;3.70;;;3.30;99.90;;;;;;5026374;28;20219;-71
2022/11/21 04:04:57;;;;;;;4.40;4.10;;;3.30;99.90;;;;;;5027103;28;21691;-70
2022/11/21 04:07:24;;;;;;;4.50;4.20;;;3.30;99.90;;;;;;5026337;28;20227;-71
2022/11/21 04:09:53;;;;;;;4.13;3.83;;;3.40;99.90;;;;;;5041538;28;20198;-72
2022/11/21 04:12:21;;;;;;;4.45;4.15;;;3.40;99.90;;;;;;5029173;28;20230;-70
2022/11/21 04:14:48;;;;;;;3.95;3.72;;;3.40;99.90;;;;;;5031960;28;20242;-71
2022/11/21 04:17:15;;;;;;;4.07;3.80;;;3.40;99.90;;;;;;5037552;28;20245;-71
2022/11/21 04:19:43;;;;;;;4.45;4.13;;;3.40;99.90;;;;;;5044779;28;20199;-71
2022/11/21 04:22:10;;;;;;;5.88;4.55;;;3.40;99.90;;;;;;5045270;28;20237;-72
2022/11/21 04:24:37;;;;;;;4.90;4.50;;;3.40;99.90;;;;;;5043917;28;20854;-71
2022/11/21 04:27:06;;;;;;;4.03;3.83;;;3.40;99.90;;;;;;5044512;28;20219;-71
2022/11/21 04:29:33;;;;;;;4.25;4.03;;;3.30;99.90;;;;;;5043974;28;20265;-71
2022/11/21 04:32:00;;;;;;;3.88;3.58;;;3.30;99.90;;;;;;5043972;28;20703;-70
2022/11/21 04:34:27;;;;;;;4.47;4.18;;;3.30;99.90;;;;;;5044663;28;20223;-72
2022/11/21 04:36:54;;;;;;;4.45;4.15;;;3.30;99.90;;;;;;5043886;28;20231;-71
2022/11/21 04:39:21;;;;;;;3.70;3.40;;;3.20;99.90;;;;;;5048922;28;20195;-70
2022/11/21 04:41:49;;;;;;;4.22;3.92;;;3.20;99.90;;;;;;5052464;28;20218;-70
2022/11/21 04:44:18;;;;;;;4.32;4.03;;;3.10;99.90;;;;;;5053745;28;20555;-71
2022/11/21 04:46:45;;;;;;;3.72;3.53;;;3.10;99.90;;;;;;5045670;28;20198;-72
2022/11/21 04:49:12;;;;;;;4.70;4.38;;;3.10;99.90;;;;;;5044151;28;20206;-71
2022/11/21 04:51:40;;;;;;;4.40;4.00;;;3.10;99.90;;;;;;5049268;28;20218;-72
2022/11/21 04:54:07;;;;;;;4.40;4.10;;;3.10;99.90;;;;;;5049257;28;20585;-71
2022/11/21 04:56:34;;;;;;;4.38;4.07;;;3.00;99.90;;;;;;5053591;28;20202;-71
2022/11/21 04:59:01;;;;;;;4.45;4.15;;;3.00;99.90;;;;;;5053373;28;20206;-72
2022/11/21 05:01:30;;;;;;;4.40;4.10;;;2.90;99.90;;;;;;5050039;28;20223;-71
2022/11/21 05:03:58;;;;;;;4.00;3.80;;;2.90;99.90;;;;;;5050774;28;20223;-70
2022/11/21 05:06:25;;;;;;;4.25;3.95;;;2.90;99.90;;;;;;5054013;28;20245;-70
2022/11/21 05:08:52;;;;;;;3.95;3.65;;;2.90;99.90;;;;;;5049823;28;20223;-70
2022/11/21 05:14:04;;;;;;;4.80;4.47;;;2.90;99.90;;;;;;5048627;28;20307;-70
2022/11/21 05:16:34;;;;;;;4.85;4.55;;;3.00;99.90;;;;;;5052562;28;20190;-73
2022/11/21 05:19:02;;;;;;;4.60;4.30;;;3.00;99.90;;;;;;5051362;28;20612;-70
2022/11/21 05:21:29;;;;;;;4.22;3.92;;;2.90;99.90;;;;;;5049014;28;20222;-70
2022/11/21 05:23:57;;;;;;;4.45;4.15;;;2.90;99.90;;;;;;5050552;28;20234;-70
2022/11/21 05:26:24;;;;;;;3.92;3.70;;;2.90;99.90;;;;;;5053393;28;20207;-70
2022/11/21 05:28:51;;;;;;;5.68;5.28;;;3.00;99.90;;;;;;5041744;28;20226;-71
2022/11/21 05:31:18;;;;;;;5.32;4.95;;;3.00;99.90;;;;;;5046417;28;20627;-71
2022/11/21 05:33:47;;;;;;;4.82;4.50;;;3.00;99.90;;;;;;5042265;28;20221;-70
2022/11/21 05:36:14;;;;;;;4.72;4.43;;;3.00;99.90;;;;;;5042155;28;20203;-69
2022/11/21 05:38:42;;;;;;;4.90;4.50;;;3.00;99.90;;;;;;5043672;28;20221;-69
2022/11/21 05:41:09;;;;;;;5.05;4.65;;;3.00;99.90;;;;;;5043535;28;20631;-70
2022/11/21 05:43:47;;;;;;;4.22;3.92;;;2.90;99.90;;;;;;5043379;28;20237;-69
2022/11/21 05:46:16;;;;;;;3.83;3.63;;;2.90;99.90;;;;;;5044403;28;20194;-69
2022/11/21 05:48:44;;;;;;;4.50;4.20;;;2.90;99.90;;;;;;5044500;28;20238;-70
2022/11/21 05:51:13;;;;;;;4.53;4.22;;;2.90;99.90;;;;;;5043461;28;20222;-69
2022/11/21 05:53:40;;;;;;;4.60;4.30;;;2.90;99.90;;;;;;5044019;28;20226;-71
2022/11/21 05:56:10;;;;;;;5.40;4.90;;;2.90;99.90;;;;;;5043671;28;20227;-68
2022/11/21 05:58:37;;;;;;;4.45;4.15;;;2.90;99.90;;;;;;5060472;28;20217;-70
2022/11/21 06:01:05;;;;;;;5.20;4.80;;;2.90;99.90;;;;;;5048316;28;20219;-70
2022/11/21 06:03:34;;;;;;;4.57;4.28;;;2.90;99.90;;;;;;5043974;28;20227;-70
2022/11/21 06:06:04;;;;;;;4.95;4.65;;;2.90;99.90;;;;;;5046150;28;20202;-70
2022/11/21 06:08:33;;;;;;;4.90;4.60;;;2.90;99.90;;;;;;5048688;28;20636;-70
2022/11/21 06:11:01;;;;;;;4.63;4.22;;;2.90;99.90;;;;;;5053995;28;20234;-70
2022/11/21 06:13:28;;;;;;;4.60;4.30;;;2.90;99.90;;;;;;5055234;28;20218;-70
2022/11/21 06:16:00;;;;;;;5.15;4.75;;;2.90;99.90;;;;;;5052014;28;20215;-70
2022/11/21 06:18:27;;;;;;;3.97;3.67;;;2.80;99.90;;;;;;5051989;28;20221;-70
2022/11/21 06:21:00;;;;;;;5.70;5.30;;;2.80;99.90;;;;;;5053479;28;20203;-70
2022/11/21 06:23:27;;;;;;;5.22;4.82;;;2.70;99.90;;;;;;5048182;28;20226;-70
2022/11/21 06:25:58;;;;;;;4.70;4.40;;;2.70;99.90;;;;;;5047420;28;20198;-70
2022/11/21 06:28:25;;;;;;;4.82;4.53;;;2.70;99.90;;;;;;5046105;28;20222;-70
2022/11/21 06:30:55;;;;;;;5.30;4.90;;;2.70;99.90;;;;;;5049703;28;20210;-70
2022/11/21 06:33:22;;;;;;;5.20;4.80;;;2.70;99.90;;;;;;5057561;28;20325;-70
2022/11/21 06:35:50;;;;;;;4.75;4.35;;;2.70;99.90;;;;;;5054358;28;20214;-71
2022/11/21 06:38:18;;;;;;;5.47;5.05;;;2.70;99.90;;;;;;5055653;28;20223;-70
2022/11/21 06:40:46;;;;;;;5.00;4.70;;;2.80;99.90;;;;;;5053273;28;20237;-70
2022/11/21 06:43:15;;;;;;;5.18;4.78;;;2.80;99.90;;;;;;5053421;28;20214;-70
2022/11/21 06:45:42;;;;;;;5.45;4.95;;;2.80;99.90;;;;;;5051773;28;20190;-70
2022/11/21 06:48:09;;;;;;;5.68;5.28;;;2.90;99.90;;;;;;5051156;28;20226;-70
2022/11/21 06:50:37;;;;;;;6.80;6.20;;;2.90;99.90;;;;;;5050811;28;20592;-70
2022/11/21 06:53:05;;;;;;;6.07;5.47;;;2.90;99.90;;;;;;5050155;28;20734;-70
2022/11/21 06:55:32;;;;;;;6.03;5.53;;;3.00;99.90;;;;;;5050235;28;20211;-71
2022/11/21 06:57:59;;;;;;;6.30;5.80;;;3.00;99.90;;;;;;5052003;28;21842;-72
2022/11/21 07:00:28;;;;;;;5.97;5.40;;;3.00;99.90;;;;;;5052909;28;20202;-71
2022/11/21 07:02:59;;;;;;;6.03;5.53;;;3.20;99.90;;;;;;5049641;28;20222;-71
2022/11/21 07:05:26;;;;;;;5.72;5.22;;;3.30;99.90;;;;;;5049360;28;20198;-69
2022/11/21 07:07:58;;;;;;;6.60;6.00;;;3.40;99.90;;;;;;5044881;28;20211;-69
2022/11/21 07:10:25;;;;;;;5.78;5.32;;;3.30;99.90;;;;;;5045065;28;20815;-71
2022/11/21 07:15:42;;;;;;;5.28;4.88;;;3.20;99.90;;;;;;5048279;28;20229;-70
2022/11/21 07:18:10;;;;;;;5.15;4.75;;;3.10;99.90;;;;;;5050426;28;20230;-70
2022/11/21 07:20:38;;;;;;;5.35;4.95;;;3.10;99.90;;;;;;5057026;28;20692;-71
2022/11/21 07:23:06;;;;;;;4.97;4.65;;;3.00;99.90;;;;;;5054105;28;20218;-71
2022/11/21 07:25:33;;;;;;;4.75;4.45;;;3.00;99.90;;;;;;5043570;28;20206;-71
2022/11/21 07:28:01;;;;;;;5.50;5.10;;;2.90;99.90;;;;;;5047202;28;20218;-71
2022/11/21 07:30:28;;;;;;;5.75;5.25;;;2.90;99.90;;;;;;5051262;28;20191;-71
2022/11/21 07:32:58;;;;;;;4.82;4.50;;;2.90;99.90;;;;;;5048219;28;20230;-71
2022/11/21 07:35:26;;;;;;;4.93;4.63;;;2.90;99.90;;;;;;5044682;28;20214;-71
2022/11/21 07:37:54;;;;;;;5.35;4.88;;;2.90;99.90;;;;;;5047797;28;20234;-71
2022/11/21 07:40:22;;;;;;;4.63;4.30;;;2.90;99.90;;;;;;5055020;28;20572;-71
2022/11/21 07:42:49;;;;;;;4.32;4.03;;;2.90;99.90;;;;;;5052985;28;20243;-71
2022/11/21 07:45:16;;;;;;;4.18;3.88;;;3.00;99.90;;;;;;5049283;28;20265;-71
2022/11/21 07:47:44;;;;;;;4.20;3.90;;;3.00;99.90;;;;;;5049183;28;20214;-71
2022/11/21 07:50:13;;;;;;;4.75;4.35;;;3.00;99.90;;;;;;5044762;28;20195;-71
2022/11/21 07:52:40;;;;;;;5.15;4.75;;;3.00;99.90;;;;;;5047456;28;20222;-71
2022/11/21 07:55:09;;;;;;;6.28;5.78;;;3.20;99.90;;;;;;5051049;28;20687;-72
2022/11/21 07:57:36;;;;;;;6.05;5.55;;;4.20;99.90;;;;;;5048475;28;20225;-71
2022/11/21 08:00:04;;;;;;;5.82;4.57;;;5.40;99.90;;;;;;5050407;28;20198;-71
2022/11/21 08:02:31;;;;;;;5.10;4.20;;;6.60;99.90;;;;;;5044729;28;20269;-71
2022/11/21 08:04:59;;;;;;;4.05;3.75;;;7.70;99.90;;;;;;5050405;28;20273;-70
2022/11/21 08:07:27;;;;;;;4.40;4.00;;;8.60;99.90;;;;;;5045966;28;20230;-71
2022/11/21 08:09:55;;;;;;;4.50;4.20;;;9.20;99.90;;;;;;5045446;28;20932;-71
2022/11/21 08:12:22;;;;;;;6.30;5.70;;;9.70;99.90;;;;;;5044912;28;21797;-70
2022/11/21 08:14:49;;;;;;;6.63;5.63;;;10.10;99.90;;;;;;5046856;28;20218;-70
2022/11/21 08:17:17;;;;;;;6.20;5.30;;;10.40;99.90;;;;;;5045565;28;20226;-69
2022/11/21 08:19:44;;;;;;;4.60;4.20;;;10.70;99.90;;;;;;5067779;28;20257;-71
2022/11/21 08:22:11;;;;;;;4.43;4.10;;;10.80;99.90;;;;;;5047314;28;20215;-70
2022/11/21 08:24:40;;;;;;;5.43;4.07;;;10.90;99.90;;;;;;5049323;28;20466;-70
2022/11/21 08:27:07;;;;;;;4.15;3.85;;;11.30;99.90;;;;;;5051443;28;20222;-70
2022/11/21 08:29:34;;;;;;;3.47;3.25;;;11.50;99.90;;;;;;5048467;28;20210;-72
2022/11/21 08:32:04;;;;;;;3.67;3.38;;;11.90;99.90;;;;;;5045007;28;20236;-70
2022/11/21 08:34:32;;;;;;;4.28;3.95;;;11.90;99.90;;;;;;5062990;28;20215;-71
2022/11/21 08:37:01;;;;;;;4.57;3.95;;;12.00;99.90;;;;;;5044881;28;20237;-72
2022/11/21 08:39:29;;;;;;;4.85;4.20;;;12.00;99.90;;;;;;5047323;28;20199;-71
2022/11/21 08:42:04;;;;;;;5.60;5.03;;;12.10;99.90;;;;;;5044885;28;20226;-70
2022/11/21 08:44:32;;;;;;;4.75;4.25;;;12.30;99.90;;;;;;5044743;28;20659;-70
2022/11/21 08:47:00;;;;;;;4.97;4.07;;;12.30;99.90;;;;;;5045173;28;20726;-71
2022/11/21 08:49:27;;;;;;;4.25;3.85;;;12.50;99.90;;;;;;5045857;28;20196;-72
2022/11/21 08:51:55;;;;;;;6.53;3.80;;;12.80;99.90;;;;;;5043721;28;20219;-71
2022/11/21 08:54:23;;;;;;;4.05;3.72;;;13.20;99.90;;;;;;5038698;28;20203;-72
2022/11/21 08:56:51;;;;;;;4.28;3.88;;;13.30;99.90;;;;;;5040935;28;20235;-72
2022/11/21 08:59:19;;;;;;;5.00;4.50;;;13.40;99.90;;;;;;5044003;28;20199;-72
2022/11/21 09:01:47;;;;;;;5.57;4.45;;;13.60;99.90;;;;;;5041517;28;20210;-72
2022/11/21 09:04:14;;;;;;;4.65;3.97;;;14.40;99.90;;;;;;5043275;28;20202;-72
2022/11/21 09:06:41;;;;;;;5.25;4.70;;;15.50;99.90;;;;;;5044932;28;20187;-70
2022/11/21 09:09:09;;;;;;;5.03;4.53;;;16.80;99.90;;;;;;5046147;28;20667;-72
2022/11/21 09:11:37;;;;;;;3.90;3.60;;;18.00;99.90;;;;;;5044214;28;20299;-72
2022/11/21 09:19:35;;;;;;;4.18;3.78;;;21.70;91.00;;;;;;5040955;28;20194;-71
2022/11/21 09:22:02;;;;;;;3.50;3.20;;;22.40;86.80;;;;;;5043509;28;20226;-71
2022/11/21 09:24:30;;;;;;;3.63;3.33;;;22.70;81.80;;;;;;5043868;28;20203;-70
2022/11/21 09:26:57;;;;;;;3.33;3.03;;;22.70;80.60;;;;;;5046788;28;20230;-71
2022/11/21 09:29:24;;;;;;;3.85;3.53;;;22.50;79.30;;;;;;5046632;28;20229;-72
2022/11/21 09:31:53;;;;;;;4.65;3.67;;;21.80;78.00;;;;;;5042996;28;20229;-71
2022/11/21 09:34:20;;;;;;;4.82;3.35;;;20.80;79.90;;;;;;5043652;28;20191;-71
2022/11/21 09:36:48;;;;;;;3.53;3.22;;;19.70;82.90;;;;;;5045951;28;20244;-71
2022/11/21 09:39:16;;;;;;;4.00;3.60;;;18.50;87.60;;;;;;5044316;28;20195;-71
2022/11/21 09:41:54;;;;;;;3.30;3.00;;;17.10;91.30;;;;;;5040454;28;20211;-72
2022/11/21 09:44:53;;;;;;;3.67;3.10;;;15.80;93.70;;;;;;5042615;28;20264;-71
2022/11/21 09:47:26;;;;;;;6.22;3.40;;;15.10;96.80;;;;;;5035614;28;20223;-72
2022/11/21 09:50:00;;;;;;;3.80;3.40;;;14.70;99.10;;;;;;5048871;28;20577;-71
2022/11/21 09:52:37;;;;;;;3.88;3.15;;;14.50;99.90;;;;;;5044372;28;20217;-69
2022/11/21 09:55:11;;;;;;;4.93;3.70;;;14.40;99.90;;;;;;5052116;28;20275;-71
2022/11/21 09:57:38;;;;;;;3.70;3.30;;;14.50;99.90;;;;;;5044642;28;20335;-71
2022/11/21 10:00:23;;;;;;;3.40;3.00;;;14.50;99.90;;;;;;5048813;28;20261;-72
2022/11/21 10:02:53;;;;;;;3.80;3.42;;;14.60;99.90;;;;;;5042955;28;20218;-72
2022/11/21 10:05:30;;;;;;;3.95;3.65;;;14.50;99.90;;;;;;5044885;28;20199;-71
2022/11/21 10:08:01;;;;;;;6.00;3.83;;;14.50;99.90;;;;;;5045018;28;20249;-71
2022/11/21 10:10:42;;;;;;;4.35;3.92;;;14.60;99.90;;;;;;5045533;28;20195;-71
2022/11/21 10:13:24;;;;;;;4.18;3.78;;;14.50;99.90;;;;;;5042378;28;20279;-71
2022/11/21 10:15:58;;;;;;;4.07;3.67;;;14.50;99.90;;;;;;5045979;28;20237;-71
2022/11/21 10:18:50;;;;;;;4.45;4.05;;;14.50;99.90;;;;;;5041604;28;20218;-71
2022/11/21 10:21:36;;;;;;;3.85;3.45;;;14.20;99.90;;;;;;5043137;28;20226;-70
2022/11/21 10:24:14;;;;;;;4.22;3.50;;;14.50;99.90;;;;;;5040142;28;20246;-71
2022/11/21 10:26:50;;;;;;;4.15;3.28;;;14.60;99.90;;;;;;5043145;28;20821;-73
2022/11/21 10:29:22;;;;;;;3.88;3.50;;;14.40;99.90;;;;;;5043045;28;20191;-73
2022/11/21 10:31:49;;;;;;;3.85;3.28;;;14.40;99.90;;;;;;5044086;28;20264;-73
2022/11/21 10:34:21;;;;;;;5.38;3.53;;;14.40;99.90;;;;;;5042431;28;20203;-74
2022/11/21 10:36:53;;;;;;;3.47;3.17;;;14.40;99.90;;;;;;5041789;28;20692;-73
2022/11/21 10:39:26;;;;;;;4.45;4.05;;;14.10;99.90;;;;;;5041272;28;20202;-73
2022/11/21 10:41:59;;;;;;;4.40;3.28;;;14.10;99.90;;;;;;5044648;28;20230;-72
2022/11/21 10:47:16;;;;;;;3.78;3.47;;;14.30;99.90;;;;;;5043089;28;20229;-71
2022/11/21 10:50:01;;;;;;;3.53;3.22;;;14.50;99.90;;;;;;5046163;28;20731;-72
2022/11/21 10:52:34;;;;;;;3.65;3.35;;;14.50;99.90;;;;;;5041851;28;20214;-72
2022/11/21 10:55:12;;;;;;;3.58;3.05;;;14.10;99.90;;;;;;5043798;28;20231;-71
2022/11/21 10:57:45;;;;;;;3.15;2.95;;;13.80;99.90;;;;;;5046017;28;20218;-71
2022/11/21 11:00:22;;;;;;;3.15;2.95;;;13.90;99.90;;;;;;5047155;28;20206;-72
2022/11/21 11:03:16;;;;;;;3.65;3.35;;;13.80;99.90;;;;;;5043035;28;20686;-70
2022/11/21 11:05:55;;;;;;;4.50;3.45;;;14.00;99.90;;;;;;5043478;28;20191;-71
2022/11/21 11:08:23;;;;;;;3.55;3.25;;;14.10;99.90;;;;;;5045611;28;20230;-72
2022/11/21 11:11:03;;;;;;;3.55;3.25;;;14.10;99.90;;;;;;5046758;28;20202;-73
2022/11/21 11:13:36;;;;;;;4.05;3.17;;;14.20;99.90;;;;;;5042976;28;20699;-72
2022/11/21 11:16:16;;;;;;;3.72;3.42;;;14.20;99.90;;;;;;5046255;28;20249;-72
2022/11/21 11:18:50;;;;;;;3.42;3.13;;;14.40;99.90;;;;;;5044125;28;20218;-72
2022/11/21 11:21:21;;;;;;;3.13;2.92;;;14.10;99.90;;;;;;5045870;28;20223;-72
2022/11/21 11:23:52;;;;;;;3.30;3.00;;;14.20;99.90;;;;;;5049509;28;20214;-72
2022/11/21 11:26:28;;;;;;;3.22;3.03;;;14.20;99.90;;;;;;5045624;28;20660;-71
2022/11/21 11:29:08;;;;;;;4.00;2.97;;;14.30;99.90;;;;;;5052265;28;20226;-71
2022/11/21 11:31:43;;;;;;;4.47;3.45;;;14.10;99.90;;;;;;5043203;28;20215;-70
2022/11/21 11:34:14;;;;;;;3.22;2.92;;;14.00;99.90;;;;;;5042702;28;20745;-72
2022/11/21 11:37:03;;;;;;;2.90;2.70;;;14.00;99.90;;;;;;5042831;28;20215;-72
2022/11/21 11:39:40;;;;;;;4.53;3.20;;;14.20;99.90;;;;;;5040052;28;20198;-72
2022/11/21 11:48:21;;;;;;;3.95;3.08;;;14.30;99.90;;;;;;5047411;28;20253;-73
2022/11/21 11:50:51;;;;;;;4.28;2.65;;;14.30;99.90;;;;;;5045268;28;20206;-74
2022/11/21 11:53:23;;;;;;;3.28;2.97;;;14.00;99.90;;;;;;5042899;28;20226;-74
2022/11/21 11:55:54;;;;;;;3.08;2.88;;;13.50;99.90;;;;;;5042620;28;20234;-74
2022/11/21 11:58:26;;;;;;;3.38;3.08;;;13.20;99.90;;;;;;5045562;28;20272;-74
2022/11/21 12:01:01;;;;;;;3.10;2.90;;;13.20;99.90;;;;;;5045536;28;20203;-74
2022/11/21 12:03:40;;;;;;;3.55;3.25;;;13.40;99.90;;;;;;5042604;28;20279;-73
2022/11/21 12:06:14;;;;;;;4.35;3.50;;;13.50;99.90;;;;;;5046347;28;20190;-74
2022/11/21 12:08:50;;;;;;;3.50;3.20;;;13.50;99.90;;;;;;5043565;28;20230;-74
2022/11/21 12:15:47;;;;;;;3.40;3.10;;;13.90;99.90;;;;;;5050319;28;20292;-75
2022/11/21 12:17:10;;;;;;;3.55;3.17;;;13.80;99.90;;;;;;5053086;28;20231;-74
2022/11/21 12:19:39;;;;;;;3.20;2.95;;;13.80;99.90;;;;;;5046906;28;20199;-74
2022/11/21 12:22:10;;;;;;;3.60;3.17;;;13.70;99.90;;;;;;5043708;28;20230;-73
2022/11/21 12:24:39;;;;;;;3.38;3.08;;;13.90;99.90;;;;;;5044901;28;20191;-74
2022/11/21 12:27:19;;;;;;;3.72;3.00;;;14.10;99.90;;;;;;5043729;28;20222;-74
2022/11/21 12:30:03;;;;;;;3.58;3.28;;;14.00;99.90;;;;;;5045920;28;20194;-75
2022/11/21 12:32:45;;;;;;;3.20;2.90;;;13.90;99.90;;;;;;5044835;28;20225;-74
2022/11/21 12:35:31;;;;;;;3.67;2.83;;;13.80;99.90;;;;;;5044627;28;20666;-74
2022/11/21 12:38:10;;;;;;;3.20;2.97;;;13.70;99.90;;;;;;5042798;28;20842;-75
2022/11/21 12:40:50;;;;;;;3.60;3.30;;;13.50;99.90;;;;;;5053285;28;20191;-75
2022/11/21 12:43:31;;;;;;;3.15;2.95;;;13.60;99.90;;;;;;5045118;28;20257;-74
2022/11/21 12:46:10;;;;;;;3.03;2.80;;;13.80;99.90;;;;;;5041894;28;20203;-74
2022/11/21 12:55:02;;;;;;;3.28;2.97;;;13.40;99.90;;;;;;5042007;28;20252;-72
2022/11/21 12:57:40;;;;;;;3.47;2.97;;;13.10;99.90;;;;;;5041209;28;20238;-74
2022/11/21 13:00:16;;;;;;;2.88;2.67;;;12.80;99.90;;;;;;5042953;28;20249;-73
2022/11/21 13:03:03;;;;;;;2.58;2.38;;;12.80;99.90;;;;;;5041406;28;20732;-73
2022/11/21 13:05:32;;;;;;;6.50;2.30;;;13.00;99.90;;;;;;5043789;28;20202;-73
2022/11/21 13:08:03;;;;;;;3.15;2.30;;;12.90;99.90;;;;;;5041144;28;20222;-73
2022/11/21 13:10:32;;;;;;;2.67;2.38;;;12.70;99.90;;;;;;5044676;28;20317;-73
2022/11/21 13:13:10;;;;;;;2.47;2.28;;;12.40;99.90;;;;;;5058836;28;20714;-73
2022/11/21 13:15:49;;;;;;;2.10;2.00;;;12.50;99.90;;;;;;5043125;28;20218;-73
2022/11/21 13:18:21;;;;;;;2.42;2.30;;;12.70;99.90;;;;;;5044923;28;20222;-73
2022/11/21 13:20:50;;;;;;;2.78;2.22;;;12.70;99.90;;;;;;5043836;28;20206;-72
2022/11/21 13:23:37;;;;;;;3.60;2.70;;;12.50;99.90;;;;;;5046200;28;20230;-72
2022/11/21 13:26:43;;;;;;;2.42;2.20;;;12.60;99.90;;;;;;5040877;28;20205;-72
2022/11/21 13:29:18;;;;;;;2.70;2.50;;;12.80;99.90;;;;;;5045793;28;20653;-72
2022/11/21 13:31:46;;;;;;;2.58;2.38;;;12.80;99.90;;;;;;5035884;28;20215;-74
2022/11/21 13:34:37;;;;;;;2.47;2.28;;;12.90;99.90;;;;;;5037806;28;20199;-71
2022/11/21 13:37:06;;;;;;;2.65;2.20;;;12.70;99.90;;;;;;5016541;28;20308;-73
2022/11/21 13:39:36;;;;;;;2.65;2.45;;;12.50;99.90;;;;;;5023967;28;20200;-73
2022/11/21 13:44:55;;;;;;;2.30;2.10;;;12.40;99.90;;;;;;5047101;28;20246;-73